createdAt,value
2019-02-21T00:03:59.891Z,7.86
2019-02-21T00:09:05.121Z,7.79
2019-02-21T00:14:09.338Z,7.72
2019-02-21T00:19:13.393Z,7.76
2019-02-21T00:24:17.440Z,7.82
2019-02-21T00:29:21.478Z,7.69
2019-02-21T00:34:25.543Z,7.71
2019-02-21T00:39:29.553Z,7.67
2019-02-21T00:44:33.579Z,7.69
2019-02-21T00:49:37.602Z,7.70
2019-02-21T00:54:41.629Z,7.67
2019-02-21T00:59:45.672Z,7.61
2019-02-21T01:04:49.754Z,7.61
2019-02-21T01:09:53.855Z,7.59
2019-02-21T01:14:57.869Z,7.59
2019-02-21T01:20:01.900Z,7.58
2019-02-21T01:25:06.543Z,7.58
2019-02-21T01:30:10.795Z,7.60
2019-02-21T01:35:14.802Z,7.59
2019-02-21T01:40:18.850Z,7.57
2019-02-21T01:45:22.911Z,7.55
2019-02-21T01:50:26.944Z,7.47
2019-02-21T01:55:30.955Z,7.40
2019-02-21T02:00:35.049Z,7.42
2019-02-21T02:05:39.049Z,7.39
2019-02-21T02:10:43.111Z,7.34
2019-02-21T02:15:47.138Z,7.42
2019-02-21T02:20:51.169Z,7.34
2019-02-21T02:25:55.193Z,7.42
2019-02-21T02:30:59.221Z,7.42
2019-02-21T02:36:03.237Z,7.44
2019-02-21T02:41:07.274Z,7.55
2019-02-21T02:46:11.289Z,7.58
2019-02-21T02:51:15.343Z,7.68
2019-02-21T02:56:19.355Z,7.67
2019-02-21T03:01:34.363Z,7.58
2019-02-21T03:06:29.129Z,7.53
2019-02-21T03:11:33.154Z,7.51
2019-02-21T03:16:37.185Z,7.54
2019-02-21T03:21:42.133Z,7.46
2019-02-21T03:26:46.167Z,7.48
2019-02-21T03:31:54.925Z,7.53
2019-02-21T03:36:55.982Z,7.53
2019-02-21T03:42:00.012Z,7.61
2019-02-21T03:47:04.050Z,7.62
2019-02-21T03:52:08.077Z,7.57
2019-02-21T03:57:12.166Z,7.65
2019-02-21T04:02:16.283Z,7.72
2019-02-21T04:07:21.816Z,7.69
2019-02-21T04:12:26.279Z,7.62
2019-02-21T04:17:30.317Z,7.71
2019-02-21T04:22:34.329Z,7.73
2019-02-21T04:27:38.349Z,7.68
2019-02-21T04:32:42.380Z,7.68
2019-02-21T04:37:46.426Z,7.76
2019-02-21T04:42:50.551Z,7.65
2019-02-21T04:47:54.591Z,7.64
2019-02-21T04:52:58.674Z,7.54
2019-02-21T04:58:02.691Z,7.58
2019-02-21T05:03:06.717Z,7.62
2019-02-21T05:08:10.748Z,7.54
2019-02-21T05:13:14.778Z,7.60
2019-02-21T05:18:18.800Z,7.48
2019-02-21T05:23:22.823Z,7.51
2019-02-21T05:28:30.988Z,7.41
2019-02-21T05:33:57.022Z,7.30
2019-02-21T05:39:10.492Z,7.34
2019-02-21T05:44:45.468Z,7.30
2019-02-21T05:50:08.275Z,7.25
2019-02-21T05:55:24.043Z,7.20
2019-02-21T06:00:39.039Z,7.23
2019-02-21T06:06:05.109Z,7.29
2019-02-21T06:11:30.870Z,7.22
2019-02-21T06:16:56.055Z,7.11
2019-02-21T06:22:28.086Z,7.03
2019-02-21T06:27:39.025Z,7.01
2019-02-21T06:32:43.048Z,7.05
2019-02-21T06:37:47.079Z,7.05
2019-02-21T06:42:51.113Z,6.99
2019-02-21T06:47:55.115Z,7.13
2019-02-21T06:52:59.410Z,7.12
2019-02-21T06:58:03.449Z,7.16
2019-02-21T07:03:15.513Z,7.27
2019-02-21T07:08:13.246Z,7.38
2019-02-21T07:13:26.156Z,7.42
2019-02-21T07:18:23.068Z,7.39
2019-02-21T07:23:27.752Z,7.40
2019-02-21T07:28:31.805Z,7.58
2019-02-21T07:33:35.859Z,7.69
2019-02-21T07:38:39.882Z,7.79
2019-02-21T07:43:43.933Z,7.83
2019-02-21T07:48:47.959Z,7.84
2019-02-21T07:53:52.008Z,7.99
2019-02-21T07:58:57.685Z,7.95
2019-02-21T08:04:01.731Z,7.96
2019-02-21T08:09:07.050Z,8.06
2019-02-21T08:14:11.079Z,7.94
2019-02-21T08:19:15.130Z,7.88
2019-02-21T08:24:19.150Z,7.87
2019-02-21T08:29:23.212Z,7.75
2019-02-21T08:34:32.050Z,7.81
2019-02-21T08:39:36.080Z,7.78
2019-02-21T08:44:40.129Z,7.64
2019-02-21T08:49:44.136Z,7.65
2019-02-21T08:54:48.166Z,7.90
2019-02-21T08:59:52.178Z,7.64
2019-02-21T09:04:56.249Z,7.57
2019-02-21T09:10:00.386Z,7.67
2019-02-21T09:15:04.981Z,7.80
2019-02-21T09:20:09.834Z,7.80
2019-02-21T09:25:13.901Z,7.84
2019-02-21T09:30:18.727Z,7.86
2019-02-21T09:35:22.737Z,7.94
2019-02-21T09:40:28.502Z,8.21
2019-02-21T09:45:33.199Z,8.06
2019-02-21T09:50:37.355Z,8.22
2019-02-21T09:55:41.401Z,8.39
2019-02-21T10:00:45.444Z,8.36
2019-02-21T10:05:49.953Z,8.29
2019-02-21T10:10:54.168Z,8.66
2019-02-21T10:15:58.290Z,8.48
2019-02-21T10:21:02.627Z,8.67
2019-02-21T10:26:06.753Z,8.83
2019-02-21T10:31:10.762Z,8.88
2019-02-21T10:36:14.791Z,9.06
2019-02-21T10:41:18.959Z,9.29
2019-02-21T10:46:23.098Z,9.55
2019-02-21T10:51:27.138Z,9.52
2019-02-21T10:56:31.171Z,9.94
2019-02-21T11:01:35.195Z,10.48
2019-02-21T11:06:39.235Z,11.33
2019-02-21T11:11:43.288Z,11.01
2019-02-21T11:16:47.330Z,10.96
2019-02-21T11:21:51.392Z,11.38
2019-02-21T11:26:55.571Z,10.98
2019-02-21T11:31:59.601Z,10.80
2019-02-21T11:37:06.880Z,11.50
2019-02-21T11:42:10.996Z,11.50
2019-02-21T11:47:15.051Z,11.17
2019-02-21T11:52:19.095Z,11.32
2019-02-21T11:57:23.423Z,13.40
2019-02-21T12:02:27.456Z,13.02
2019-02-21T12:07:31.549Z,12.77
2019-02-21T12:12:42.671Z,12.72
2019-02-21T12:17:46.790Z,11.48
2019-02-21T12:22:50.887Z,11.07
2019-02-21T12:27:55.039Z,10.95
2019-02-21T12:32:59.129Z,10.93
2019-02-21T12:38:03.187Z,10.97
2019-02-21T12:43:07.398Z,10.73
2019-02-21T12:48:14.018Z,10.86
2019-02-21T12:53:17.779Z,10.96
2019-02-21T12:58:21.804Z,10.89
2019-02-21T13:03:25.960Z,10.85
2019-02-21T13:08:29.989Z,10.89
2019-02-21T13:13:34.063Z,10.94
2019-02-21T13:18:38.304Z,10.84
2019-02-21T13:23:43.024Z,10.70
2019-02-21T13:28:47.233Z,10.90
2019-02-21T13:33:51.274Z,10.96
2019-02-21T13:38:55.313Z,10.90
2019-02-21T13:43:59.331Z,10.86
2019-02-21T13:49:03.361Z,10.83
2019-02-21T13:54:07.406Z,10.67
2019-02-21T13:59:11.447Z,10.73
2019-02-21T14:04:15.505Z,10.67
2019-02-21T14:09:19.633Z,10.61
2019-02-21T14:14:23.676Z,10.52
2019-02-21T14:19:27.740Z,10.58
2019-02-21T14:24:36.804Z,10.61
2019-02-21T14:29:39.542Z,10.59
2019-02-21T14:34:43.287Z,10.44
2019-02-21T14:39:48.299Z,10.29
2019-02-21T14:44:52.381Z,10.00
2019-02-21T14:49:56.370Z,9.78
2019-02-21T14:55:00.512Z,9.89
2019-02-21T15:00:05.620Z,9.83
2019-02-21T15:05:10.189Z,9.80
2019-02-21T15:10:15.648Z,9.80
2019-02-21T15:15:21.955Z,9.77
2019-02-21T15:20:36.268Z,9.82
2019-02-21T15:25:31.626Z,9.90
2019-02-21T15:30:35.671Z,9.98
2019-02-21T15:35:39.735Z,9.92
2019-02-21T15:40:43.745Z,9.97
2019-02-21T15:45:47.830Z,10.15
2019-02-21T15:50:51.857Z,10.10
2019-02-21T15:55:55.897Z,10.05
2019-02-21T16:00:59.929Z,10.03
2019-02-21T16:06:04.182Z,10.10
2019-02-21T16:11:08.227Z,10.07
2019-02-21T16:16:12.625Z,10.11
2019-02-21T16:21:16.797Z,10.02
2019-02-21T16:26:20.860Z,10.12
2019-02-21T16:31:24.914Z,10.10
2019-02-21T16:36:28.963Z,10.16
2019-02-21T16:41:36.385Z,10.06
2019-02-21T16:46:38.932Z,10.13
2019-02-21T16:51:43.004Z,10.09
2019-02-21T16:56:47.160Z,10.13
2019-02-21T17:01:51.248Z,10.19
2019-02-21T17:06:55.353Z,10.23
2019-02-21T17:11:59.398Z,10.18
2019-02-21T17:17:03.422Z,10.23
2019-02-21T17:22:07.475Z,10.22
2019-02-21T17:27:11.728Z,10.14
2019-02-21T17:32:15.791Z,10.20
2019-02-21T17:37:24.898Z,10.21
2019-02-21T17:42:25.810Z,10.18
2019-02-21T17:47:32.599Z,10.22
2019-02-21T17:52:35.805Z,10.24
2019-02-21T17:57:39.896Z,10.24
2019-02-21T18:02:43.933Z,10.30
2019-02-21T18:07:48.218Z,9.94
2019-02-21T18:12:52.398Z,9.71
2019-02-21T18:17:56.503Z,9.55
2019-02-21T18:23:00.575Z,9.29
2019-02-21T18:28:04.569Z,9.25
2019-02-21T18:33:08.606Z,9.21
2019-02-21T18:38:12.650Z,8.96
2019-02-21T18:43:16.735Z,8.93
2019-02-21T18:48:20.758Z,9.06
2019-02-21T18:53:24.793Z,9.03
2019-02-21T18:58:28.831Z,8.94
2019-02-21T19:03:32.917Z,8.88
2019-02-21T19:08:37.109Z,8.96
2019-02-21T19:13:41.096Z,8.83
2019-02-21T19:18:45.152Z,8.86
2019-02-21T19:23:49.264Z,8.91
2019-02-21T19:28:53.446Z,8.84
2019-02-21T19:33:57.544Z,8.79
2019-02-21T19:39:01.578Z,8.90
2019-02-21T19:44:08.829Z,8.78
2019-02-21T19:49:11.742Z,8.78
2019-02-21T19:54:15.821Z,8.76
2019-02-21T19:59:19.926Z,8.81
2019-02-21T20:04:24.066Z,8.67
2019-02-21T20:09:28.306Z,8.50
2019-02-21T20:14:32.517Z,8.64
2019-02-21T20:19:36.598Z,8.66
2019-02-21T20:24:40.774Z,8.77
2019-02-21T20:29:44.831Z,8.74
2019-02-21T20:34:48.941Z,8.68
2019-02-21T20:39:55.026Z,8.77
2019-02-21T20:44:58.796Z,8.72
2019-02-21T20:50:02.870Z,8.71
2019-02-21T20:55:06.947Z,8.66
2019-02-21T21:00:12.125Z,8.74
2019-02-21T21:05:16.219Z,8.67
2019-02-21T21:10:20.391Z,8.72
2019-02-21T21:15:24.461Z,8.70
2019-02-21T21:20:28.688Z,8.67
2019-02-21T21:25:32.754Z,8.74
2019-02-21T21:30:36.808Z,8.73
2019-02-21T21:35:40.850Z,8.72
2019-02-21T21:40:44.905Z,8.75
2019-02-21T21:45:48.930Z,8.78
2019-02-21T21:50:53.043Z,8.65
2019-02-21T21:55:57.072Z,8.68
2019-02-21T22:01:01.090Z,8.56
2019-02-21T22:06:05.205Z,8.54
2019-02-21T22:11:09.238Z,8.55
2019-02-21T22:16:13.268Z,8.56
2019-02-21T22:21:17.504Z,8.57
2019-02-21T22:26:22.176Z,8.57
2019-02-21T22:31:26.283Z,8.64
2019-02-21T22:36:30.318Z,8.57
2019-02-21T22:41:34.401Z,8.58
2019-02-21T22:46:38.373Z,8.62
2019-02-21T22:51:42.477Z,8.64
2019-02-21T22:56:46.588Z,8.67
2019-02-21T23:01:50.610Z,8.67
2019-02-21T23:07:01.921Z,8.70
2019-02-21T23:12:06.021Z,8.65
2019-02-21T23:17:10.043Z,8.67
2019-02-21T23:22:14.043Z,8.67
2019-02-21T23:27:18.045Z,8.70
2019-02-21T23:32:22.034Z,8.71
2019-02-21T23:37:26.069Z,8.74
2019-02-21T23:42:30.114Z,8.74
2019-02-21T23:47:34.130Z,8.72
2019-02-21T23:52:38.151Z,8.73
2019-02-21T23:57:42.177Z,8.70
